sensor_id;sensor_type;location;lat;lon;timestamp;P1;durP1;ratioP1;P2;durP2;ratioP2
18435;SDS011;9346;52.006;4.720;2023-05-07T00:00:33;17.37;;;12.63;;
18435;SDS011;9346;52.006;4.720;2023-05-07T00:03:00;17.57;;;12.07;;
18435;SDS011;9346;52.006;4.720;2023-05-07T00:05:29;16.60;;;11.73;;
18435;SDS011;9346;52.006;4.720;2023-05-07T00:07:58;19.80;;;13.10;;
18435;SDS011;9346;52.006;4.720;2023-05-07T00:10:26;14.17;;;10.77;;
18435;SDS011;9346;52.006;4.720;2023-05-07T00:12:52;15.03;;;10.63;;
18435;SDS011;9346;52.006;4.720;2023-05-07T00:15:19;20.37;;;12.57;;
18435;SDS011;9346;52.006;4.720;2023-05-07T00:17:46;19.93;;;13.40;;
18435;SDS011;9346;52.006;4.720;2023-05-07T00:20:13;17.80;;;13.50;;
18435;SDS011;9346;52.006;4.720;2023-05-07T00:22:42;18.17;;;11.50;;
18435;SDS011;9346;52.006;4.720;2023-05-07T00:25:10;16.97;;;12.07;;
18435;SDS011;9346;52.006;4.720;2023-05-07T00:27:36;17.57;;;12.70;;
18435;SDS011;9346;52.006;4.720;2023-05-07T00:30:04;20.37;;;14.23;;
18435;SDS011;9346;52.006;4.720;2023-05-07T00:32:32;20.30;;;12.87;;
18435;SDS011;9346;52.006;4.720;2023-05-07T00:34:58;17.80;;;11.73;;
18435;SDS011;9346;52.006;4.720;2023-05-07T00:37:25;20.17;;;13.47;;
18435;SDS011;9346;52.006;4.720;2023-05-07T00:39:53;22.57;;;13.67;;
18435;SDS011;9346;52.006;4.720;2023-05-07T00:42:21;23.93;;;16.13;;
18435;SDS011;9346;52.006;4.720;2023-05-07T00:44:48;25.00;;;15.07;;
18435;SDS011;9346;52.006;4.720;2023-05-07T00:47:15;24.63;;;17.17;;
18435;SDS011;9346;52.006;4.720;2023-05-07T00:49:43;21.47;;;15.07;;
18435;SDS011;9346;52.006;4.720;2023-05-07T00:52:13;26.07;;;16.07;;
18435;SDS011;9346;52.006;4.720;2023-05-07T00:54:41;19.73;;;13.97;;
18435;SDS011;9346;52.006;4.720;2023-05-07T00:57:10;20.80;;;15.07;;
18435;SDS011;9346;52.006;4.720;2023-05-07T00:59:37;24.07;;;16.17;;
18435;SDS011;9346;52.006;4.720;2023-05-07T01:02:05;25.20;;;16.40;;
18435;SDS011;9346;52.006;4.720;2023-05-07T01:04:33;29.43;;;17.77;;
18435;SDS011;9346;52.006;4.720;2023-05-07T01:07:00;23.77;;;18.27;;
18435;SDS011;9346;52.006;4.720;2023-05-07T01:09:28;26.57;;;18.53;;
18435;SDS011;9346;52.006;4.720;2023-05-07T01:11:56;23.27;;;17.17;;
18435;SDS011;9346;52.006;4.720;2023-05-07T01:14:26;24.80;;;17.17;;
18435;SDS011;9346;52.006;4.720;2023-05-07T01:16:54;25.07;;;17.53;;
18435;SDS011;9346;52.006;4.720;2023-05-07T01:19:21;26.23;;;17.73;;
18435;SDS011;9346;52.006;4.720;2023-05-07T01:21:50;28.73;;;17.90;;
18435;SDS011;9346;52.006;4.720;2023-05-07T01:24:19;27.03;;;18.80;;
18435;SDS011;9346;52.006;4.720;2023-05-07T01:26:46;24.70;;;18.10;;
18435;SDS011;9346;52.006;4.720;2023-05-07T01:29:13;26.30;;;17.67;;
18435;SDS011;9346;52.006;4.720;2023-05-07T01:31:40;23.87;;;16.57;;
18435;SDS011;9346;52.006;4.720;2023-05-07T01:34:09;27.03;;;17.90;;
18435;SDS011;9346;52.006;4.720;2023-05-07T01:36:39;26.83;;;18.43;;
18435;SDS011;9346;52.006;4.720;2023-05-07T01:39:09;27.67;;;18.77;;
18435;SDS011;9346;52.006;4.720;2023-05-07T01:41:39;26.57;;;18.07;;
18435;SDS011;9346;52.006;4.720;2023-05-07T01:44:09;24.30;;;17.90;;
18435;SDS011;9346;52.006;4.720;2023-05-07T01:46:38;24.13;;;17.67;;
18435;SDS011;9346;52.006;4.720;2023-05-07T01:49:05;24.00;;;17.27;;
18435;SDS011;9346;52.006;4.720;2023-05-07T01:51:32;21.83;;;16.30;;
18435;SDS011;9346;52.006;4.720;2023-05-07T01:54:05;24.53;;;18.07;;
18435;SDS011;9346;52.006;4.720;2023-05-07T01:56:33;24.00;;;17.60;;
18435;SDS011;9346;52.006;4.720;2023-05-07T01:59:02;22.27;;;16.97;;
18435;SDS011;9346;52.006;4.720;2023-05-07T02:01:29;22.23;;;16.93;;
18435;SDS011;9346;52.006;4.720;2023-05-07T02:03:56;19.73;;;15.63;;
18435;SDS011;9346;52.006;4.720;2023-05-07T02:06:23;17.97;;;14.73;;
18435;SDS011;9346;52.006;4.720;2023-05-07T02:08:49;20.37;;;16.07;;
18435;SDS011;9346;52.006;4.720;2023-05-07T02:11:16;23.57;;;15.90;;
18435;SDS011;9346;52.006;4.720;2023-05-07T02:13:43;21.37;;;16.00;;
18435;SDS011;9346;52.006;4.720;2023-05-07T02:16:12;18.83;;;15.23;;
18435;SDS011;9346;52.006;4.720;2023-05-07T02:18:40;20.30;;;14.60;;
18435;SDS011;9346;52.006;4.720;2023-05-07T02:21:06;18.57;;;14.53;;
18435;SDS011;9346;52.006;4.720;2023-05-07T02:23:34;20.00;;;15.17;;
18435;SDS011;9346;52.006;4.720;2023-05-07T02:26:03;21.00;;;15.27;;
18435;SDS011;9346;52.006;4.720;2023-05-07T02:28:30;18.23;;;14.37;;
18435;SDS011;9346;52.006;4.720;2023-05-07T02:31:00;18.10;;;14.43;;
18435;SDS011;9346;52.006;4.720;2023-05-07T02:33:31;17.57;;;14.23;;
18435;SDS011;9346;52.006;4.720;2023-05-07T02:36:04;22.37;;;16.47;;
18435;SDS011;9346;52.006;4.720;2023-05-07T02:38:32;19.40;;;14.40;;
18435;SDS011;9346;52.006;4.720;2023-05-07T02:40:59;19.47;;;14.13;;
18435;SDS011;9346;52.006;4.720;2023-05-07T02:43:26;22.43;;;15.13;;
18435;SDS011;9346;52.006;4.720;2023-05-07T02:46:00;17.80;;;14.17;;
18435;SDS011;9346;52.006;4.720;2023-05-07T02:48:28;18.27;;;14.30;;
18435;SDS011;9346;52.006;4.720;2023-05-07T02:50:56;19.00;;;14.80;;
18435;SDS011;9346;52.006;4.720;2023-05-07T02:53:23;16.33;;;13.53;;
18435;SDS011;9346;52.006;4.720;2023-05-07T02:55:52;20.10;;;15.33;;
18435;SDS011;9346;52.006;4.720;2023-05-07T02:58:20;19.93;;;14.27;;
18435;SDS011;9346;52.006;4.720;2023-05-07T03:00:47;16.37;;;13.87;;
18435;SDS011;9346;52.006;4.720;2023-05-07T03:03:14;19.33;;;13.33;;
18435;SDS011;9346;52.006;4.720;2023-05-07T03:05:42;18.23;;;13.03;;
18435;SDS011;9346;52.006;4.720;2023-05-07T03:08:10;18.73;;;13.37;;
18435;SDS011;9346;52.006;4.720;2023-05-07T03:10:37;16.60;;;13.80;;
18435;SDS011;9346;52.006;4.720;2023-05-07T03:13:04;17.23;;;13.17;;
18435;SDS011;9346;52.006;4.720;2023-05-07T03:15:31;15.80;;;12.70;;
18435;SDS011;9346;52.006;4.720;2023-05-07T03:17:58;14.20;;;12.43;;
18435;SDS011;9346;52.006;4.720;2023-05-07T03:20:25;16.43;;;13.10;;
18435;SDS011;9346;52.006;4.720;2023-05-07T03:22:52;18.37;;;13.40;;
18435;SDS011;9346;52.006;4.720;2023-05-07T03:25:20;15.90;;;12.57;;
18435;SDS011;9346;52.006;4.720;2023-05-07T03:27:47;14.27;;;11.67;;
18435;SDS011;9346;52.006;4.720;2023-05-07T03:30:14;16.73;;;13.00;;
18435;SDS011;9346;52.006;4.720;2023-05-07T03:32:42;17.37;;;12.80;;
18435;SDS011;9346;52.006;4.720;2023-05-07T03:35:09;15.17;;;12.60;;
18435;SDS011;9346;52.006;4.720;2023-05-07T03:37:37;14.40;;;12.07;;
18435;SDS011;9346;52.006;4.720;2023-05-07T03:40:04;14.93;;;12.37;;
18435;SDS011;9346;52.006;4.720;2023-05-07T03:42:34;17.70;;;13.43;;
18435;SDS011;9346;52.006;4.720;2023-05-07T03:45:02;14.50;;;12.20;;
18435;SDS011;9346;52.006;4.720;2023-05-07T03:47:29;16.80;;;12.77;;
18435;SDS011;9346;52.006;4.720;2023-05-07T03:49:56;14.80;;;11.50;;
18435;SDS011;9346;52.006;4.720;2023-05-07T03:52:24;16.60;;;12.47;;
18435;SDS011;9346;52.006;4.720;2023-05-07T03:54:51;14.57;;;12.27;;
18435;SDS011;9346;52.006;4.720;2023-05-07T03:57:19;13.67;;;12.03;;
18435;SDS011;9346;52.006;4.720;2023-05-07T03:59:47;15.93;;;12.73;;
18435;SDS011;9346;52.006;4.720;2023-05-07T04:02:14;18.17;;;13.23;;
18435;SDS011;9346;52.006;4.720;2023-05-07T04:04:42;15.00;;;12.23;;
18435;SDS011;9346;52.006;4.720;2023-05-07T04:07:08;14.77;;;12.73;;
18435;SDS011;9346;52.006;4.720;2023-05-07T04:09:35;16.53;;;11.73;;
18435;SDS011;9346;52.006;4.720;2023-05-07T04:12:03;16.53;;;13.27;;
18435;SDS011;9346;52.006;4.720;2023-05-07T04:14:30;16.10;;;12.87;;
18435;SDS011;9346;52.006;4.720;2023-05-07T04:16:59;18.80;;;12.50;;
18435;SDS011;9346;52.006;4.720;2023-05-07T04:19:25;15.00;;;12.63;;
18435;SDS011;9346;52.006;4.720;2023-05-07T04:21:52;14.50;;;12.90;;
18435;SDS011;9346;52.006;4.720;2023-05-07T04:24:19;16.00;;;12.43;;
18435;SDS011;9346;52.006;4.720;2023-05-07T04:26:46;15.60;;;12.90;;
18435;SDS011;9346;52.006;4.720;2023-05-07T04:29:13;15.37;;;12.97;;
18435;SDS011;9346;52.006;4.720;2023-05-07T04:31:40;15.53;;;12.37;;
18435;SDS011;9346;52.006;4.720;2023-05-07T04:34:10;16.43;;;12.07;;
18435;SDS011;9346;52.006;4.720;2023-05-07T04:36:38;15.90;;;12.27;;
18435;SDS011;9346;52.006;4.720;2023-05-07T04:39:04;16.67;;;12.60;;
18435;SDS011;9346;52.006;4.720;2023-05-07T04:41:32;18.27;;;13.10;;
18435;SDS011;9346;52.006;4.720;2023-05-07T04:43:58;15.17;;;11.40;;
18435;SDS011;9346;52.006;4.720;2023-05-07T04:46:25;15.10;;;12.10;;
18435;SDS011;9346;52.006;4.720;2023-05-07T04:48:52;17.50;;;11.77;;
18435;SDS011;9346;52.006;4.720;2023-05-07T04:51:22;16.43;;;12.40;;
18435;SDS011;9346;52.006;4.720;2023-05-07T04:53:49;14.00;;;11.73;;
18435;SDS011;9346;52.006;4.720;2023-05-07T04:56:16;14.63;;;11.67;;
18435;SDS011;9346;52.006;4.720;2023-05-07T04:58:43;16.73;;;11.57;;
18435;SDS011;9346;52.006;4.720;2023-05-07T05:01:13;19.83;;;13.87;;
18435;SDS011;9346;52.006;4.720;2023-05-07T05:03:40;16.53;;;11.70;;
18435;SDS011;9346;52.006;4.720;2023-05-07T05:06:07;17.33;;;12.40;;
18435;SDS011;9346;52.006;4.720;2023-05-07T05:08:35;16.67;;;12.93;;
18435;SDS011;9346;52.006;4.720;2023-05-07T05:11:03;18.40;;;13.60;;
18435;SDS011;9346;52.006;4.720;2023-05-07T05:13:30;18.00;;;13.07;;
18435;SDS011;9346;52.006;4.720;2023-05-07T05:15:57;16.40;;;13.30;;
18435;SDS011;9346;52.006;4.720;2023-05-07T05:18:23;18.37;;;13.33;;
18435;SDS011;9346;52.006;4.720;2023-05-07T05:20:51;16.37;;;13.33;;
18435;SDS011;9346;52.006;4.720;2023-05-07T05:23:18;19.57;;;14.50;;
18435;SDS011;9346;52.006;4.720;2023-05-07T05:25:47;17.27;;;13.77;;
18435;SDS011;9346;52.006;4.720;2023-05-07T05:28:13;20.00;;;14.93;;
18435;SDS011;9346;52.006;4.720;2023-05-07T05:30:40;18.30;;;14.57;;
18435;SDS011;9346;52.006;4.720;2023-05-07T05:33:07;18.47;;;14.23;;
18435;SDS011;9346;52.006;4.720;2023-05-07T05:35:34;19.63;;;14.73;;
18435;SDS011;9346;52.006;4.720;2023-05-07T05:38:01;19.33;;;15.50;;
18435;SDS011;9346;52.006;4.720;2023-05-07T05:40:28;16.37;;;13.43;;
18435;SDS011;9346;52.006;4.720;2023-05-07T05:42:59;18.30;;;13.17;;
18435;SDS011;9346;52.006;4.720;2023-05-07T05:45:26;19.47;;;14.47;;
18435;SDS011;9346;52.006;4.720;2023-05-07T05:47:53;19.60;;;14.93;;
18435;SDS011;9346;52.006;4.720;2023-05-07T05:50:22;21.57;;;14.03;;
18435;SDS011;9346;52.006;4.720;2023-05-07T05:52:49;19.30;;;14.03;;
18435;SDS011;9346;52.006;4.720;2023-05-07T05:55:16;19.37;;;14.67;;
18435;SDS011;9346;52.006;4.720;2023-05-07T05:57:43;21.83;;;15.97;;
18435;SDS011;9346;52.006;4.720;2023-05-07T06:00:12;20.70;;;15.90;;
18435;SDS011;9346;52.006;4.720;2023-05-07T06:02:41;21.00;;;14.17;;
18435;SDS011;9346;52.006;4.720;2023-05-07T06:05:08;23.10;;;15.87;;
18435;SDS011;9346;52.006;4.720;2023-05-07T06:07:35;20.50;;;14.50;;
18435;SDS011;9346;52.006;4.720;2023-05-07T06:10:02;23.03;;;15.87;;
18435;SDS011;9346;52.006;4.720;2023-05-07T06:12:30;21.07;;;15.33;;
18435;SDS011;9346;52.006;4.720;2023-05-07T06:14:57;19.60;;;16.07;;
18435;SDS011;9346;52.006;4.720;2023-05-07T06:17:26;25.10;;;17.07;;
18435;SDS011;9346;52.006;4.720;2023-05-07T06:19:53;20.03;;;15.50;;
18435;SDS011;9346;52.006;4.720;2023-05-07T06:22:19;22.50;;;17.27;;
18435;SDS011;9346;52.006;4.720;2023-05-07T06:24:46;22.47;;;17.27;;
18435;SDS011;9346;52.006;4.720;2023-05-07T06:27:13;23.97;;;18.43;;
18435;SDS011;9346;52.006;4.720;2023-05-07T06:29:40;27.47;;;19.13;;
18435;SDS011;9346;52.006;4.720;2023-05-07T06:32:07;26.83;;;19.23;;
18435;SDS011;9346;52.006;4.720;2023-05-07T06:34:36;25.37;;;17.57;;
18435;SDS011;9346;52.006;4.720;2023-05-07T06:37:03;26.27;;;18.77;;
18435;SDS011;9346;52.006;4.720;2023-05-07T06:39:30;28.93;;;20.53;;
18435;SDS011;9346;52.006;4.720;2023-05-07T06:41:58;24.13;;;17.83;;
18435;SDS011;9346;52.006;4.720;2023-05-07T06:44:26;26.97;;;20.13;;
18435;SDS011;9346;52.006;4.720;2023-05-07T06:46:54;25.43;;;19.43;;
18435;SDS011;9346;52.006;4.720;2023-05-07T06:49:20;28.20;;;19.43;;
18435;SDS011;9346;52.006;4.720;2023-05-07T06:51:49;27.53;;;20.47;;
18435;SDS011;9346;52.006;4.720;2023-05-07T06:54:16;23.80;;;17.73;;
18435;SDS011;9346;52.006;4.720;2023-05-07T06:56:43;29.80;;;20.23;;
18435;SDS011;9346;52.006;4.720;2023-05-07T06:59:10;29.10;;;20.43;;
18435;SDS011;9346;52.006;4.720;2023-05-07T07:01:38;27.80;;;19.27;;
18435;SDS011;9346;52.006;4.720;2023-05-07T07:04:06;22.97;;;18.33;;
18435;SDS011;9346;52.006;4.720;2023-05-07T07:06:36;24.73;;;17.57;;
18435;SDS011;9346;52.006;4.720;2023-05-07T07:09:06;26.27;;;19.23;;
18435;SDS011;9346;52.006;4.720;2023-05-07T07:11:33;24.90;;;17.80;;
18435;SDS011;9346;52.006;4.720;2023-05-07T07:14:04;23.37;;;16.73;;
18435;SDS011;9346;52.006;4.720;2023-05-07T07:16:34;22.20;;;17.83;;
18435;SDS011;9346;52.006;4.720;2023-05-07T07:19:01;26.80;;;18.70;;
18435;SDS011;9346;52.006;4.720;2023-05-07T07:21:28;25.27;;;18.63;;
18435;SDS011;9346;52.006;4.720;2023-05-07T07:23:57;28.20;;;21.63;;
18435;SDS011;9346;52.006;4.720;2023-05-07T07:26:26;27.83;;;20.73;;
18435;SDS011;9346;52.006;4.720;2023-05-07T07:28:53;28.27;;;20.67;;
18435;SDS011;9346;52.006;4.720;2023-05-07T07:31:21;28.00;;;20.17;;
18435;SDS011;9346;52.006;4.720;2023-05-07T07:33:48;26.90;;;21.13;;
18435;SDS011;9346;52.006;4.720;2023-05-07T07:36:15;27.93;;;20.27;;
18435;SDS011;9346;52.006;4.720;2023-05-07T07:38:43;28.83;;;21.47;;
18435;SDS011;9346;52.006;4.720;2023-05-07T07:41:13;28.23;;;21.07;;
18435;SDS011;9346;52.006;4.720;2023-05-07T07:43:42;26.87;;;20.30;;
18435;SDS011;9346;52.006;4.720;2023-05-07T07:46:09;25.17;;;19.87;;
18435;SDS011;9346;52.006;4.720;2023-05-07T07:48:36;29.60;;;21.07;;
18435;SDS011;9346;52.006;4.720;2023-05-07T07:51:03;26.73;;;20.60;;
18435;SDS011;9346;52.006;4.720;2023-05-07T07:53:30;28.77;;;21.07;;
18435;SDS011;9346;52.006;4.720;2023-05-07T07:55:58;27.13;;;19.90;;
18435;SDS011;9346;52.006;4.720;2023-05-07T07:58:26;29.87;;;20.93;;
18435;SDS011;9346;52.006;4.720;2023-05-07T08:00:58;31.50;;;22.60;;
18435;SDS011;9346;52.006;4.720;2023-05-07T08:03:25;27.00;;;21.70;;
18435;SDS011;9346;52.006;4.720;2023-05-07T08:05:53;29.53;;;22.33;;
18435;SDS011;9346;52.006;4.720;2023-05-07T08:08:21;32.17;;;22.50;;
18435;SDS011;9346;52.006;4.720;2023-05-07T08:10:48;30.60;;;21.90;;
18435;SDS011;9346;52.006;4.720;2023-05-07T08:13:15;27.30;;;20.30;;
18435;SDS011;9346;52.006;4.720;2023-05-07T08:15:44;29.60;;;20.97;;
18435;SDS011;9346;52.006;4.720;2023-05-07T08:18:12;28.03;;;19.97;;
18435;SDS011;9346;52.006;4.720;2023-05-07T08:20:40;28.97;;;20.53;;
18435;SDS011;9346;52.006;4.720;2023-05-07T08:23:07;27.57;;;20.73;;
18435;SDS011;9346;52.006;4.720;2023-05-07T08:25:34;27.50;;;20.00;;
18435;SDS011;9346;52.006;4.720;2023-05-07T08:28:02;28.63;;;20.63;;
18435;SDS011;9346;52.006;4.720;2023-05-07T08:30:29;27.43;;;20.33;;
18435;SDS011;9346;52.006;4.720;2023-05-07T08:32:57;24.47;;;19.13;;
18435;SDS011;9346;52.006;4.720;2023-05-07T08:35:26;24.73;;;18.03;;
18435;SDS011;9346;52.006;4.720;2023-05-07T08:37:54;26.63;;;18.27;;
18435;SDS011;9346;52.006;4.720;2023-05-07T08:40:22;24.83;;;18.67;;
18435;SDS011;9346;52.006;4.720;2023-05-07T08:42:53;25.13;;;17.13;;
18435;SDS011;9346;52.006;4.720;2023-05-07T08:45:24;21.27;;;15.27;;
18435;SDS011;9346;52.006;4.720;2023-05-07T08:47:55;20.57;;;15.00;;
18435;SDS011;9346;52.006;4.720;2023-05-07T08:50:27;17.77;;;13.77;;
18435;SDS011;9346;52.006;4.720;2023-05-07T08:52:54;16.90;;;12.87;;
18435;SDS011;9346;52.006;4.720;2023-05-07T08:55:22;17.37;;;13.10;;
18435;SDS011;9346;52.006;4.720;2023-05-07T08:57:52;15.73;;;12.40;;
18435;SDS011;9346;52.006;4.720;2023-05-07T09:00:20;15.80;;;11.50;;
18435;SDS011;9346;52.006;4.720;2023-05-07T09:02:47;16.97;;;12.43;;
18435;SDS011;9346;52.006;4.720;2023-05-07T09:05:14;16.27;;;12.03;;
18435;SDS011;9346;52.006;4.720;2023-05-07T09:07:43;15.77;;;11.67;;
18435;SDS011;9346;52.006;4.720;2023-05-07T09:10:11;12.40;;;9.60;;
18435;SDS011;9346;52.006;4.720;2023-05-07T09:12:39;12.60;;;9.50;;
18435;SDS011;9346;52.006;4.720;2023-05-07T09:15:07;12.57;;;8.83;;
18435;SDS011;9346;52.006;4.720;2023-05-07T09:17:36;13.40;;;9.80;;
18435;SDS011;9346;52.006;4.720;2023-05-07T09:20:07;12.97;;;9.30;;
18435;SDS011;9346;52.006;4.720;2023-05-07T09:22:35;11.33;;;9.23;;
18435;SDS011;9346;52.006;4.720;2023-05-07T09:25:05;10.60;;;8.20;;
18435;SDS011;9346;52.006;4.720;2023-05-07T09:27:34;10.93;;;8.33;;
18435;SDS011;9346;52.006;4.720;2023-05-07T09:30:03;12.07;;;8.30;;
18435;SDS011;9346;52.006;4.720;2023-05-07T09:32:32;10.03;;;7.93;;
18435;SDS011;9346;52.006;4.720;2023-05-07T09:35:01;10.90;;;7.40;;
18435;SDS011;9346;52.006;4.720;2023-05-07T09:37:28;8.77;;;7.23;;
18435;SDS011;9346;52.006;4.720;2023-05-07T09:39:57;9.30;;;6.53;;
18435;SDS011;9346;52.006;4.720;2023-05-07T09:42:26;8.20;;;6.83;;
18435;SDS011;9346;52.006;4.720;2023-05-07T09:44:54;7.50;;;6.70;;
18435;SDS011;9346;52.006;4.720;2023-05-07T09:47:22;8.37;;;7.10;;
18435;SDS011;9346;52.006;4.720;2023-05-07T09:49:55;11.03;;;7.67;;
18435;SDS011;9346;52.006;4.720;2023-05-07T09:52:24;10.00;;;7.97;;
18435;SDS011;9346;52.006;4.720;2023-05-07T09:54:58;8.67;;;7.57;;
18435;SDS011;9346;52.006;4.720;2023-05-07T09:57:28;10.87;;;6.20;;
18435;SDS011;9346;52.006;4.720;2023-05-07T09:59:57;9.70;;;6.10;;
18435;SDS011;9346;52.006;4.720;2023-05-07T10:02:25;8.87;;;6.17;;
18435;SDS011;9346;52.006;4.720;2023-05-07T10:04:57;7.90;;;5.63;;
18435;SDS011;9346;52.006;4.720;2023-05-07T10:07:27;9.80;;;6.53;;
18435;SDS011;9346;52.006;4.720;2023-05-07T10:09:54;8.70;;;6.33;;
18435;SDS011;9346;52.006;4.720;2023-05-07T10:12:22;7.43;;;6.03;;
18435;SDS011;9346;52.006;4.720;2023-05-07T10:14:52;7.80;;;5.07;;
18435;SDS011;9346;52.006;4.720;2023-05-07T10:17:20;5.60;;;4.60;;
18435;SDS011;9346;52.006;4.720;2023-05-07T10:19:50;7.30;;;5.20;;
18435;SDS011;9346;52.006;4.720;2023-05-07T10:22:19;6.17;;;5.50;;
18435;SDS011;9346;52.006;4.720;2023-05-07T10:24:48;5.77;;;4.77;;
18435;SDS011;9346;52.006;4.720;2023-05-07T10:27:19;9.80;;;5.00;;
18435;SDS011;9346;52.006;4.720;2023-05-07T10:29:50;6.27;;;4.93;;
18435;SDS011;9346;52.006;4.720;2023-05-07T10:32:30;6.87;;;4.30;;
18435;SDS011;9346;52.006;4.720;2023-05-07T10:35:04;6.57;;;4.90;;
18435;SDS011;9346;52.006;4.720;2023-05-07T10:37:36;6.27;;;4.57;;
18435;SDS011;9346;52.006;4.720;2023-05-07T10:40:04;4.73;;;4.07;;
18435;SDS011;9346;52.006;4.720;2023-05-07T10:42:33;5.83;;;4.20;;
18435;SDS011;9346;52.006;4.720;2023-05-07T10:45:13;7.13;;;5.20;;
18435;SDS011;9346;52.006;4.720;2023-05-07T10:50:39;7.40;;;4.63;;
18435;SDS011;9346;52.006;4.720;2023-05-07T10:53:20;6.80;;;4.80;;
18435;SDS011;9346;52.006;4.720;2023-05-07T10:58:55;7.83;;;5.17;;
18435;SDS011;9346;52.006;4.720;2023-05-07T11:04:18;6.47;;;5.43;;
18435;SDS011;9346;52.006;4.720;2023-05-07T11:09:56;7.77;;;5.13;;
18435;SDS011;9346;52.006;4.720;2023-05-07T11:15:14;4.57;;;3.20;;
18435;SDS011;9346;52.006;4.720;2023-05-07T11:18:01;4.57;;;3.37;;
18435;SDS011;9346;52.006;4.720;2023-05-07T11:20:45;6.57;;;3.93;;
18435;SDS011;9346;52.006;4.720;2023-05-07T11:26:43;5.47;;;4.40;;
18435;SDS011;9346;52.006;4.720;2023-05-07T11:29:15;6.80;;;5.27;;
18435;SDS011;9346;52.006;4.720;2023-05-07T11:31:47;7.67;;;5.97;;
18435;SDS011;9346;52.006;4.720;2023-05-07T11:34:17;8.63;;;5.73;;
18435;SDS011;9346;52.006;4.720;2023-05-07T11:36:48;6.33;;;5.67;;
18435;SDS011;9346;52.006;4.720;2023-05-07T11:39:25;6.90;;;5.50;;
18435;SDS011;9346;52.006;4.720;2023-05-07T11:41:54;7.60;;;5.60;;
18435;SDS011;9346;52.006;4.720;2023-05-07T11:44:21;7.67;;;6.10;;
18435;SDS011;9346;52.006;4.720;2023-05-07T11:46:48;6.50;;;5.27;;
18435;SDS011;9346;52.006;4.720;2023-05-07T11:49:17;8.07;;;5.57;;
18435;SDS011;9346;52.006;4.720;2023-05-07T11:51:44;6.70;;;5.07;;
18435;SDS011;9346;52.006;4.720;2023-05-07T11:54:15;7.63;;;6.07;;
18435;SDS011;9346;52.006;4.720;2023-05-07T11:56:46;6.80;;;5.83;;
18435;SDS011;9346;52.006;4.720;2023-05-07T11:59:16;7.37;;;5.83;;
18435;SDS011;9346;52.006;4.720;2023-05-07T12:01:46;7.23;;;5.27;;
18435;SDS011;9346;52.006;4.720;2023-05-07T12:04:24;5.60;;;4.57;;
18435;SDS011;9346;52.006;4.720;2023-05-07T12:06:53;6.10;;;5.30;;
18435;SDS011;9346;52.006;4.720;2023-05-07T12:09:20;8.73;;;6.50;;
18435;SDS011;9346;52.006;4.720;2023-05-07T12:11:48;7.67;;;6.13;;
18435;SDS011;9346;52.006;4.720;2023-05-07T12:14:15;7.67;;;6.00;;
18435;SDS011;9346;52.006;4.720;2023-05-07T12:16:42;7.17;;;6.03;;
18435;SDS011;9346;52.006;4.720;2023-05-07T12:19:10;7.67;;;5.83;;
18435;SDS011;9346;52.006;4.720;2023-05-07T12:21:40;9.83;;;6.37;;
18435;SDS011;9346;52.006;4.720;2023-05-07T12:24:07;7.70;;;5.80;;
18435;SDS011;9346;52.006;4.720;2023-05-07T12:26:37;6.77;;;6.00;;
18435;SDS011;9346;52.006;4.720;2023-05-07T12:29:05;7.67;;;6.30;;
18435;SDS011;9346;52.006;4.720;2023-05-07T12:31:32;7.70;;;5.73;;
18435;SDS011;9346;52.006;4.720;2023-05-07T12:33:59;8.47;;;6.93;;
18435;SDS011;9346;52.006;4.720;2023-05-07T12:36:26;6.93;;;6.07;;
18435;SDS011;9346;52.006;4.720;2023-05-07T12:39:06;8.60;;;6.63;;
18435;SDS011;9346;52.006;4.720;2023-05-07T12:41:36;9.63;;;6.60;;
18435;SDS011;9346;52.006;4.720;2023-05-07T12:44:18;8.80;;;7.10;;
18435;SDS011;9346;52.006;4.720;2023-05-07T12:46:46;8.23;;;6.90;;
18435;SDS011;9346;52.006;4.720;2023-05-07T12:49:13;7.77;;;6.53;;
18435;SDS011;9346;52.006;4.720;2023-05-07T12:51:40;9.87;;;5.97;;
18435;SDS011;9346;52.006;4.720;2023-05-07T12:54:09;7.07;;;5.87;;
18435;SDS011;9346;52.006;4.720;2023-05-07T12:56:37;8.87;;;5.93;;
18435;SDS011;9346;52.006;4.720;2023-05-07T12:59:05;7.10;;;5.60;;
18435;SDS011;9346;52.006;4.720;2023-05-07T13:01:33;6.63;;;5.90;;
18435;SDS011;9346;52.006;4.720;2023-05-07T13:04:01;10.27;;;5.93;;
18435;SDS011;9346;52.006;4.720;2023-05-07T13:06:30;8.20;;;7.17;;
18435;SDS011;9346;52.006;4.720;2023-05-07T13:08:57;9.33;;;6.27;;
18435;SDS011;9346;52.006;4.720;2023-05-07T13:11:26;6.73;;;5.73;;
18435;SDS011;9346;52.006;4.720;2023-05-07T13:13:53;7.10;;;6.40;;
18435;SDS011;9346;52.006;4.720;2023-05-07T13:16:23;7.87;;;6.30;;
18435;SDS011;9346;52.006;4.720;2023-05-07T13:18:50;7.60;;;6.47;;
18435;SDS011;9346;52.006;4.720;2023-05-07T13:21:18;9.20;;;5.93;;
18435;SDS011;9346;52.006;4.720;2023-05-07T13:23:46;7.10;;;5.80;;
18435;SDS011;9346;52.006;4.720;2023-05-07T13:26:13;6.47;;;5.53;;
18435;SDS011;9346;52.006;4.720;2023-05-07T13:28:41;7.30;;;6.50;;
18435;SDS011;9346;52.006;4.720;2023-05-07T13:31:08;7.57;;;6.37;;
18435;SDS011;9346;52.006;4.720;2023-05-07T13:33:35;9.30;;;6.23;;
18435;SDS011;9346;52.006;4.720;2023-05-07T13:36:03;6.87;;;6.17;;
18435;SDS011;9346;52.006;4.720;2023-05-07T13:38:30;6.53;;;5.53;;
18435;SDS011;9346;52.006;4.720;2023-05-07T13:40:58;7.63;;;5.53;;
18435;SDS011;9346;52.006;4.720;2023-05-07T13:43:24;6.33;;;5.00;;
18435;SDS011;9346;52.006;4.720;2023-05-07T13:45:53;6.07;;;4.83;;
18435;SDS011;9346;52.006;4.720;2023-05-07T13:48:20;6.50;;;4.93;;
18435;SDS011;9346;52.006;4.720;2023-05-07T13:50:47;5.80;;;5.03;;
18435;SDS011;9346;52.006;4.720;2023-05-07T13:53:14;7.50;;;5.10;;
18435;SDS011;9346;52.006;4.720;2023-05-07T13:55:43;8.67;;;6.23;;
18435;SDS011;9346;52.006;4.720;2023-05-07T13:58:10;8.40;;;5.97;;
18435;SDS011;9346;52.006;4.720;2023-05-07T14:00:37;8.63;;;6.63;;
18435;SDS011;9346;52.006;4.720;2023-05-07T14:03:06;12.07;;;7.97;;
18435;SDS011;9346;52.006;4.720;2023-05-07T14:05:33;10.07;;;7.13;;
18435;SDS011;9346;52.006;4.720;2023-05-07T14:08:01;10.53;;;7.80;;
18435;SDS011;9346;52.006;4.720;2023-05-07T14:10:29;9.77;;;8.17;;
18435;SDS011;9346;52.006;4.720;2023-05-07T14:12:59;9.67;;;8.37;;
18435;SDS011;9346;52.006;4.720;2023-05-07T14:15:26;12.27;;;9.30;;
18435;SDS011;9346;52.006;4.720;2023-05-07T14:17:53;11.30;;;9.40;;
18435;SDS011;9346;52.006;4.720;2023-05-07T14:20:22;12.17;;;8.93;;
18435;SDS011;9346;52.006;4.720;2023-05-07T14:22:48;11.00;;;8.63;;
18435;SDS011;9346;52.006;4.720;2023-05-07T14:25:15;13.03;;;9.83;;
18435;SDS011;9346;52.006;4.720;2023-05-07T14:27:42;11.33;;;9.23;;
18435;SDS011;9346;52.006;4.720;2023-05-07T14:30:09;11.53;;;8.47;;
18435;SDS011;9346;52.006;4.720;2023-05-07T14:32:38;11.83;;;9.60;;
18435;SDS011;9346;52.006;4.720;2023-05-07T14:35:05;15.13;;;10.40;;
18435;SDS011;9346;52.006;4.720;2023-05-07T14:37:34;15.13;;;10.27;;
18435;SDS011;9346;52.006;4.720;2023-05-07T14:40:01;13.83;;;10.67;;
18435;SDS011;9346;52.006;4.720;2023-05-07T14:42:28;15.20;;;10.17;;
18435;SDS011;9346;52.006;4.720;2023-05-07T14:44:55;14.10;;;10.43;;
18435;SDS011;9346;52.006;4.720;2023-05-07T14:47:22;13.47;;;9.67;;
18435;SDS011;9346;52.006;4.720;2023-05-07T14:49:49;12.63;;;8.60;;
18435;SDS011;9346;52.006;4.720;2023-05-07T14:52:18;14.10;;;10.13;;
18435;SDS011;9346;52.006;4.720;2023-05-07T14:54:46;13.70;;;8.83;;
18435;SDS011;9346;52.006;4.720;2023-05-07T14:57:13;13.40;;;9.10;;
18435;SDS011;9346;52.006;4.720;2023-05-07T14:59:41;11.17;;;8.73;;
18435;SDS011;9346;52.006;4.720;2023-05-07T15:02:08;10.37;;;8.63;;
18435;SDS011;9346;52.006;4.720;2023-05-07T15:04:36;10.10;;;9.10;;
18435;SDS011;9346;52.006;4.720;2023-05-07T15:07:05;9.83;;;7.60;;